Time;durP1;ratioP1;P1;durP2;ratioP2;P2;SDS_P1;SDS_P2;PMS_P1;PMS_P2;Temp;Humidity;BMP_temperature;BMP_pressure;BME280_temperature;BME280_humidity;BME280_pressure;Samples;Min_cycle;Max_cycle;Signal;HPM_P1;HPM_P2
2022/12/02 00:01:17;;;;;;;46.08;21.45;;;5.40;99.90;;;;;;5024854;28;20038;-75
2022/12/02 00:03:44;;;;;;;48.83;22.70;;;5.40;99.90;;;;;;5000567;28;20042;-75
2022/12/02 00:06:17;;;;;;;46.67;22.65;;;5.40;99.90;;;;;;5021362;28;20041;-75
2022/12/02 00:08:43;;;;;;;48.53;21.75;;;5.40;99.90;;;;;;5014571;28;20045;-75
2022/12/02 00:11:26;;;;;;;47.97;22.88;;;5.40;99.90;;;;;;5014053;28;20041;-74
2022/12/02 00:13:51;;;;;;;48.45;21.58;;;5.40;99.90;;;;;;5004049;28;20122;-75
2022/12/02 00:16:22;;;;;;;46.97;21.10;;;5.50;99.90;;;;;;5008393;28;20116;-75
2022/12/02 00:18:49;;;;;;;46.30;22.25;;;5.30;99.90;;;;;;5022474;28;20133;-75
2022/12/02 00:21:16;;;;;;;49.42;22.30;;;5.40;99.90;;;;;;5033951;28;20056;-75
2022/12/02 00:23:41;;;;;;;50.55;21.45;;;5.40;99.90;;;;;;5015817;28;20133;-75
2022/12/02 00:26:07;;;;;;;47.47;21.80;;;5.30;99.90;;;;;;5013402;28;20473;-75
2022/12/02 00:28:33;;;;;;;50.47;22.70;;;5.30;99.90;;;;;;5011264;28;20087;-75
2022/12/02 00:30:59;;;;;;;51.70;23.48;;;5.30;99.90;;;;;;5021396;28;20042;-75
2022/12/02 00:33:24;;;;;;;52.47;23.27;;;5.40;99.90;;;;;;5001721;28;20456;-75
2022/12/02 00:35:50;;;;;;;56.60;24.33;;;5.30;99.90;;;;;;5026600;28;20061;-75
2022/12/02 00:38:16;;;;;;;52.13;24.25;;;5.30;99.90;;;;;;5008216;28;20131;-75
2022/12/02 00:40:41;;;;;;;57.70;23.75;;;5.30;99.90;;;;;;4998014;28;20523;-74
2022/12/02 00:48:35;;;;;;;55.13;24.05;;;5.20;99.90;;;;;;5020302;28;20056;-75
2022/12/02 00:51:04;;;;;;;59.13;23.60;;;5.20;99.90;;;;;;5013678;28;20036;-75
2022/12/02 00:53:30;;;;;;;56.80;23.60;;;5.20;99.90;;;;;;5011654;28;20042;-75
2022/12/02 00:55:55;;;;;;;51.35;24.20;;;5.20;99.90;;;;;;5015348;28;20375;-74
2022/12/02 00:58:21;;;;;;;59.92;25.88;;;5.20;99.90;;;;;;5010401;28;20046;-75
2022/12/02 01:00:47;;;;;;;56.17;24.08;;;5.20;99.90;;;;;;5037551;28;20482;-75
2022/12/02 01:03:13;;;;;;;56.85;24.10;;;5.20;99.90;;;;;;5015121;28;20172;-75
2022/12/02 01:05:38;;;;;;;58.85;24.67;;;5.20;99.90;;;;;;5021338;28;20041;-75
2022/12/02 01:08:04;;;;;;;57.38;24.05;;;5.20;99.90;;;;;;5022969;28;20025;-76
2022/12/02 01:10:30;;;;;;;56.88;25.17;;;5.20;99.90;;;;;;4996861;28;20088;-74
2022/12/02 01:12:56;;;;;;;54.85;23.35;;;5.10;99.90;;;;;;4998658;28;20125;-74
2022/12/02 01:15:22;;;;;;;49.53;23.30;;;5.10;99.90;;;;;;4998015;28;20045;-75
2022/12/02 01:17:47;;;;;;;60.60;25.15;;;5.10;99.90;;;;;;5019879;28;20044;-75
2022/12/02 01:20:13;;;;;;;56.03;24.83;;;5.10;99.90;;;;;;5018621;28;20042;-73
2022/12/02 01:22:39;;;;;;;53.90;24.73;;;5.10;99.90;;;;;;5019017;28;20037;-73
2022/12/02 01:25:05;;;;;;;54.40;24.65;;;5.10;99.90;;;;;;5020364;28;20492;-73
2022/12/02 01:27:30;;;;;;;52.38;23.33;;;5.10;99.90;;;;;;5022527;28;20033;-73
2022/12/02 01:29:56;;;;;;;47.72;22.38;;;5.10;99.90;;;;;;5012854;28;20030;-73
2022/12/02 01:32:23;;;;;;;55.60;24.02;;;5.10;99.90;;;;;;5017576;28;20064;-73
2022/12/02 01:34:49;;;;;;;53.95;22.88;;;5.00;99.90;;;;;;5026345;28;20045;-73
2022/12/02 01:37:14;;;;;;;52.40;23.30;;;5.10;99.90;;;;;;5020878;28;20526;-73
2022/12/02 01:39:40;;;;;;;56.97;23.70;;;5.10;99.90;;;;;;4996845;28;20136;-74
2022/12/02 01:42:06;;;;;;;55.17;23.27;;;5.50;99.90;;;;;;5014786;28;20041;-73
2022/12/02 01:44:32;;;;;;;52.97;23.65;;;5.00;99.90;;;;;;5014179;28;20041;-73
2022/12/02 01:46:58;;;;;;;53.95;23.33;;;5.00;99.90;;;;;;5046401;28;20050;-74
2022/12/02 01:49:24;;;;;;;54.22;22.95;;;5.00;99.90;;;;;;5005324;28;20402;-73
2022/12/02 01:51:50;;;;;;;55.85;24.67;;;5.00;99.90;;;;;;5021926;28;20066;-73
2022/12/02 01:54:16;;;;;;;60.95;24.48;;;5.00;99.90;;;;;;5019121;28;20033;-73
2022/12/02 01:56:42;;;;;;;53.75;23.65;;;5.00;99.90;;;;;;5006202;28;20046;-73
2022/12/02 01:59:13;;;;;;;60.60;25.42;;;5.00;99.90;;;;;;5022260;28;20040;-73
2022/12/02 02:01:39;;;;;;;62.40;26.58;;;5.00;99.90;;;;;;5022584;28;20537;-73
2022/12/02 02:04:06;;;;;;;57.72;24.05;;;5.00;99.90;;;;;;5023245;28;20049;-73
2022/12/02 02:06:35;;;;;;;61.00;25.92;;;5.00;99.90;;;;;;5025786;28;20139;-74
2022/12/02 02:09:02;;;;;;;59.60;24.95;;;4.90;99.90;;;;;;5013651;28;20034;-74
2022/12/02 02:11:28;;;;;;;54.40;24.45;;;4.90;99.90;;;;;;5015953;28;20040;-72
2022/12/02 02:13:54;;;;;;;56.60;25.58;;;5.00;99.90;;;;;;5022711;28;20085;-74
2022/12/02 02:16:19;;;;;;;56.10;24.95;;;4.90;99.90;;;;;;5024091;28;20041;-74
2022/12/02 02:18:45;;;;;;;55.70;24.92;;;4.90;99.90;;;;;;5022907;28;20045;-73
2022/12/02 02:21:19;;;;;;;57.67;24.88;;;4.90;99.90;;;;;;5023760;28;20398;-73
2022/12/02 02:23:44;;;;;;;51.80;22.75;;;4.90;99.90;;;;;;5007596;28;20056;-73
2022/12/02 02:26:10;;;;;;;51.15;22.83;;;4.90;99.90;;;;;;5013240;28;20120;-73
2022/12/02 02:28:36;;;;;;;54.83;21.95;;;4.90;99.90;;;;;;5027485;28;20034;-73
2022/12/02 02:31:04;;;;;;;50.83;21.67;;;4.90;99.90;;;;;;5018729;28;20646;-73
2022/12/02 02:33:32;;;;;;;51.95;21.65;;;4.80;99.90;;;;;;5027028;28;20049;-72
2022/12/02 02:35:58;;;;;;;42.95;19.02;;;4.80;99.90;;;;;;5014224;28;20509;-74
2022/12/02 02:38:27;;;;;;;47.33;19.95;;;4.80;99.90;;;;;;5015205;28;20125;-73
2022/12/02 02:40:54;;;;;;;47.47;20.13;;;4.80;99.90;;;;;;5004583;28;20080;-74
2022/12/02 02:43:22;;;;;;;46.22;20.35;;;4.80;99.90;;;;;;4993648;28;20030;-73
2022/12/02 02:45:49;;;;;;;43.85;18.77;;;4.80;99.90;;;;;;5016888;28;20076;-73
2022/12/02 02:48:17;;;;;;;39.08;18.10;;;4.80;99.90;;;;;;5048057;28;20061;-72
2022/12/02 02:50:45;;;;;;;44.90;18.25;;;4.70;99.90;;;;;;5021299;28;20038;-74
2022/12/02 02:53:13;;;;;;;37.85;17.73;;;4.70;99.90;;;;;;5007826;28;20045;-72
2022/12/02 02:55:38;;;;;;;39.38;18.25;;;4.80;99.90;;;;;;5010953;28;20070;-73
2022/12/02 02:58:13;;;;;;;42.47;18.25;;;4.70;99.90;;;;;;5007123;28;20464;-73
2022/12/02 03:00:58;;;;;;;41.05;18.38;;;4.70;99.90;;;;;;5041978;28;20047;-72
2022/12/02 03:03:30;;;;;;;38.17;17.35;;;4.70;99.90;;;;;;5018284;28;20038;-73
2022/12/02 03:05:58;;;;;;;40.40;18.25;;;4.70;99.90;;;;;;5002326;28;20048;-73
2022/12/02 03:08:25;;;;;;;39.03;17.25;;;4.70;99.90;;;;;;5012585;28;20104;-72
2022/12/02 03:10:54;;;;;;;33.60;15.98;;;4.70;99.90;;;;;;5038299;28;20069;-73
2022/12/02 03:13:20;;;;;;;37.95;16.60;;;4.60;99.90;;;;;;5024013;28;20037;-73
2022/12/02 03:15:46;;;;;;;34.03;16.67;;;4.60;99.90;;;;;;5016953;28;20096;-73
2022/12/02 03:18:11;;;;;;;39.88;17.73;;;4.60;99.90;;;;;;5029686;28;20041;-73
2022/12/02 03:20:37;;;;;;;37.85;17.30;;;4.60;99.90;;;;;;5004624;28;20458;-74
2022/12/02 03:23:03;;;;;;;36.10;17.25;;;4.60;99.90;;;;;;5029331;28;20719;-74
2022/12/02 03:25:30;;;;;;;34.03;17.33;;;4.60;99.90;;;;;;5024568;28;20524;-74
2022/12/02 03:27:56;;;;;;;40.15;17.42;;;4.60;99.90;;;;;;5021721;28;20495;-73
2022/12/02 03:30:22;;;;;;;42.08;17.85;;;4.60;99.90;;;;;;5046077;28;20037;-72
2022/12/02 03:32:48;;;;;;;40.58;16.73;;;4.60;99.90;;;;;;5018250;28;20046;-73
2022/12/02 03:35:14;;;;;;;35.35;16.92;;;4.60;99.90;;;;;;5006733;28;20470;-72
2022/12/02 03:37:40;;;;;;;35.53;16.40;;;4.60;99.90;;;;;;5021863;28;20053;-72
2022/12/02 03:40:07;;;;;;;35.97;17.27;;;4.60;99.90;;;;;;5032241;28;20509;-73
2022/12/02 03:42:32;;;;;;;34.17;17.55;;;4.60;99.90;;;;;;5026858;28;20037;-73
2022/12/02 03:44:58;;;;;;;34.75;16.75;;;4.60;99.90;;;;;;5022406;28;20045;-73
2022/12/02 03:47:24;;;;;;;36.97;17.23;;;4.50;99.90;;;;;;5029029;28;20033;-73
2022/12/02 03:49:50;;;;;;;37.03;18.17;;;4.50;99.90;;;;;;5005650;28;20449;-73
2022/12/02 03:52:15;;;;;;;37.53;17.60;;;4.60;99.90;;;;;;5009735;28;20129;-73
2022/12/02 03:54:41;;;;;;;34.28;16.58;;;4.50;99.90;;;;;;5011878;28;20144;-73
2022/12/02 03:57:07;;;;;;;36.30;17.30;;;4.50;99.90;;;;;;4997661;28;20034;-73
2022/12/02 03:59:33;;;;;;;35.35;17.45;;;4.50;99.90;;;;;;5008235;28;20120;-73
2022/12/02 04:01:59;;;;;;;36.00;18.05;;;4.50;99.90;;;;;;5024196;28;20053;-73
2022/12/02 04:04:25;;;;;;;34.72;17.60;;;4.50;99.90;;;;;;5016513;28;20045;-73
2022/12/02 04:06:50;;;;;;;36.47;17.80;;;4.50;99.90;;;;;;5024524;28;20046;-73
2022/12/02 04:09:16;;;;;;;36.70;18.30;;;4.50;99.90;;;;;;5017399;28;20034;-73
2022/12/02 04:11:41;;;;;;;36.90;17.08;;;4.40;99.90;;;;;;5027678;28;20041;-74
2022/12/02 04:14:07;;;;;;;35.95;17.40;;;4.40;99.90;;;;;;5020643;28;20041;-73
2022/12/02 04:16:32;;;;;;;30.00;16.05;;;4.40;99.90;;;;;;5031559;28;20041;-74
2022/12/02 04:18:58;;;;;;;32.05;15.85;;;4.40;99.90;;;;;;5020806;28;20081;-73
2022/12/02 04:21:24;;;;;;;33.95;16.27;;;4.50;99.90;;;;;;5016803;28;20099;-73
2022/12/02 04:23:51;;;;;;;31.35;15.98;;;4.40;99.90;;;;;;5025109;28;20081;-73
2022/12/02 04:26:17;;;;;;;35.22;16.35;;;3.80;99.90;;;;;;5017895;28;20052;-74
2022/12/02 04:28:43;;;;;;;32.90;15.95;;;4.40;99.90;;;;;;5013882;28;20506;-73
2022/12/02 04:31:08;;;;;;;36.13;16.25;;;4.40;99.90;;;;;;5020530;28;20026;-74
2022/12/02 04:33:34;;;;;;;32.70;16.10;;;4.40;99.90;;;;;;5006443;28;20088;-74
2022/12/02 04:35:59;;;;;;;32.95;15.77;;;4.40;99.90;;;;;;5023231;28;20053;-75
2022/12/02 04:38:25;;;;;;;31.58;15.18;;;4.30;99.90;;;;;;5016945;28;20040;-74
2022/12/02 04:40:50;;;;;;;36.47;16.92;;;4.30;99.90;;;;;;5023137;28;20046;-74
2022/12/02 04:43:16;;;;;;;32.97;15.48;;;4.40;99.90;;;;;;5016261;28;20037;-75
2022/12/02 04:45:42;;;;;;;31.77;15.27;;;4.30;99.90;;;;;;5001467;28;20045;-74
2022/12/02 04:48:07;;;;;;;34.97;16.15;;;4.30;99.90;;;;;;5023888;28;20041;-74
2022/12/02 04:50:33;;;;;;;37.05;15.95;;;4.30;99.90;;;;;;5022255;28;20076;-74
2022/12/02 04:52:59;;;;;;;33.80;15.43;;;4.30;99.90;;;;;;5022127;28;20042;-74
2022/12/02 04:55:24;;;;;;;36.47;16.23;;;4.30;99.90;;;;;;5018747;28;20404;-74
2022/12/02 04:57:50;;;;;;;34.67;14.70;;;4.30;99.90;;;;;;5010328;28;20587;-74
2022/12/02 05:00:15;;;;;;;35.13;15.27;;;4.30;99.90;;;;;;5008034;28;20068;-74
2022/12/02 05:02:41;;;;;;;32.15;14.50;;;4.20;99.90;;;;;;5009660;28;20088;-73
2022/12/02 05:05:07;;;;;;;33.65;15.27;;;4.20;99.90;;;;;;5028962;28;20060;-74
2022/12/02 05:07:33;;;;;;;38.67;15.35;;;4.20;99.90;;;;;;5027321;28;20055;-74
2022/12/02 05:09:58;;;;;;;36.90;15.73;;;4.20;99.90;;;;;;5030664;28;20034;-75
2022/12/02 05:12:24;;;;;;;38.38;15.95;;;4.20;99.90;;;;;;5018527;28;20038;-74
2022/12/02 05:14:51;;;;;;;34.50;16.35;;;4.20;99.90;;;;;;5000658;28;20037;-74
2022/12/02 05:17:17;;;;;;;37.03;15.88;;;4.20;99.90;;;;;;5009072;28;20046;-74
2022/12/02 05:19:42;;;;;;;34.30;16.45;;;4.20;99.90;;;;;;5021998;28;20040;-74
2022/12/02 05:22:08;;;;;;;38.95;16.50;;;4.20;99.90;;;;;;5029016;28;20045;-74
2022/12/02 05:24:34;;;;;;;36.17;15.82;;;4.20;99.90;;;;;;5043746;28;20040;-74
2022/12/02 05:26:59;;;;;;;38.22;16.95;;;4.10;99.90;;;;;;5012108;28;20042;-74
2022/12/02 05:29:25;;;;;;;37.88;17.40;;;4.10;99.90;;;;;;5014339;28;20378;-74
2022/12/02 05:31:51;;;;;;;37.08;15.75;;;4.10;99.90;;;;;;5030329;28;21096;-74
2022/12/02 05:34:17;;;;;;;39.08;17.30;;;4.10;99.90;;;;;;5028885;28;20041;-74
2022/12/02 05:36:42;;;;;;;41.10;17.52;;;4.10;99.90;;;;;;5025469;28;20033;-74
2022/12/02 05:39:08;;;;;;;40.17;17.90;;;4.10;99.90;;;;;;5028656;28;20040;-74
2022/12/02 05:41:34;;;;;;;39.30;17.77;;;4.10;99.90;;;;;;5021657;28;20045;-74
2022/12/02 05:44:14;;;;;;;40.20;17.63;;;4.10;99.90;;;;;;5019979;28;20162;-75
2022/12/02 05:46:39;;;;;;;38.70;17.83;;;4.10;99.90;;;;;;5027857;28;20592;-75
2022/12/02 05:49:20;;;;;;;42.05;17.88;;;4.10;99.90;;;;;;5017337;28;20041;-74
2022/12/02 05:51:56;;;;;;;41.65;17.83;;;4.10;99.90;;;;;;5011989;28;20124;-74
2022/12/02 05:54:22;;;;;;;42.05;17.88;;;4.10;99.90;;;;;;5006254;28;20079;-75
2022/12/02 05:56:48;;;;;;;41.05;17.85;;;4.10;99.90;;;;;;5013942;28;20050;-74
2022/12/02 05:59:17;;;;;;;38.42;17.10;;;4.10;99.90;;;;;;5030187;28;20087;-75
2022/12/02 06:01:46;;;;;;;39.30;17.83;;;4.10;99.90;;;;;;5003455;28;20038;-76
2022/12/02 06:04:22;;;;;;;41.55;18.08;;;4.00;99.90;;;;;;5016938;28;20045;-76
2022/12/02 06:06:52;;;;;;;37.80;17.58;;;4.00;99.90;;;;;;5017122;28;20050;-77
2022/12/02 06:09:26;;;;;;;45.85;18.60;;;4.00;99.90;;;;;;5009623;28;20038;-76
2022/12/02 06:11:52;;;;;;;43.35;17.85;;;4.00;99.90;;;;;;5018516;28;20517;-76
2022/12/02 06:14:21;;;;;;;43.08;18.85;;;4.00;99.90;;;;;;5016485;28;20037;-76
2022/12/02 06:16:49;;;;;;;39.15;17.23;;;4.00;99.90;;;;;;5022084;28;20395;-76
2022/12/02 06:19:22;;;;;;;42.20;18.15;;;4.00;99.90;;;;;;5015760;28;20132;-76
2022/12/02 06:21:48;;;;;;;43.28;18.38;;;4.00;99.90;;;;;;5005047;28;20074;-76
2022/12/02 06:24:13;;;;;;;43.85;17.85;;;4.00;99.90;;;;;;5011843;28;20073;-76
2022/12/02 06:26:39;;;;;;;48.78;18.83;;;4.00;99.90;;;;;;5006445;28;20049;-76
2022/12/02 06:29:05;;;;;;;47.03;19.00;;;4.80;99.90;;;;;;5019670;28;20057;-77
2022/12/02 06:31:37;;;;;;;46.78;18.73;;;4.00;99.90;;;;;;5018489;28;20583;-76
2022/12/02 06:34:27;;;;;;;42.63;18.17;;;4.00;99.90;;;;;;5023714;28;20041;-76
2022/12/02 06:36:56;;;;;;;44.60;17.98;;;3.90;99.90;;;;;;5013932;28;20111;-75
2022/12/02 06:39:22;;;;;;;39.08;18.00;;;4.30;99.90;;;;;;5016835;28;20041;-76
2022/12/02 06:41:49;;;;;;;39.55;18.15;;;3.90;99.90;;;;;;5025721;28;20042;-76
2022/12/02 06:47:31;;;;;;;44.38;18.73;;;3.90;99.90;;;;;;5017962;28;20077;-76
2022/12/02 06:50:03;;;;;;;45.22;19.52;;;3.90;99.90;;;;;;4998861;28;20038;-76
2022/12/02 06:52:28;;;;;;;47.97;20.75;;;3.90;99.90;;;;;;5029241;28;20037;-75
2022/12/02 06:54:55;;;;;;;48.97;20.27;;;3.90;99.90;;;;;;4994317;28;20053;-75
2022/12/02 06:57:21;;;;;;;48.97;19.27;;;3.90;99.90;;;;;;5018177;28;20121;-76
2022/12/02 06:59:47;;;;;;;50.03;20.83;;;3.90;99.90;;;;;;5025099;28;20120;-76
2022/12/02 07:02:30;;;;;;;47.70;20.35;;;3.90;99.90;;;;;;5033205;28;20549;-75
2022/12/02 07:04:57;;;;;;;51.70;20.00;;;3.90;99.90;;;;;;5019639;28;20089;-76
2022/12/02 07:07:28;;;;;;;48.08;20.23;;;3.80;99.90;;;;;;5019779;28;20042;-76
2022/12/02 07:09:57;;;;;;;54.05;21.92;;;3.80;99.90;;;;;;5016434;28;20039;-76
2022/12/02 07:12:37;;;;;;;49.15;20.42;;;3.80;99.90;;;;;;5017007;28;20068;-75
2022/12/02 07:15:35;;;;;;;52.05;21.13;;;3.90;99.90;;;;;;5002884;28;20038;-75
2022/12/02 07:18:13;;;;;;;50.50;21.20;;;3.80;99.90;;;;;;5012179;28;20128;-76
2022/12/02 07:20:43;;;;;;;52.88;22.65;;;3.80;99.90;;;;;;5015465;28;20045;-76
2022/12/02 07:23:19;;;;;;;52.75;21.52;;;3.80;99.90;;;;;;5016720;28;20037;-76
2022/12/02 07:25:46;;;;;;;56.92;22.17;;;3.80;99.90;;;;;;5003853;28;20077;-77
2022/12/02 07:28:25;;;;;;;55.30;23.23;;;3.70;99.90;;;;;;5017869;28;20457;-75
2022/12/02 07:31:01;;;;;;;57.60;24.52;;;3.80;99.90;;;;;;5006327;28;20042;-76
2022/12/02 07:33:27;;;;;;;57.05;23.50;;;3.80;99.90;;;;;;5016536;28;20121;-76
2022/12/02 07:35:53;;;;;;;58.20;24.95;;;3.80;99.90;;;;;;5007931;28;20042;-76
2022/12/02 07:38:19;;;;;;;61.22;26.15;;;3.80;99.90;;;;;;5007854;28;20531;-77
2022/12/02 07:40:44;;;;;;;59.95;23.73;;;3.80;99.90;;;;;;4999557;28;20041;-78
2022/12/02 07:43:10;;;;;;;61.67;23.45;;;3.80;99.90;;;;;;5008606;28;20092;-76
2022/12/02 07:45:35;;;;;;;64.13;23.10;;;3.80;99.90;;;;;;5011139;28;20078;-76
2022/12/02 07:48:01;;;;;;;57.75;23.20;;;3.80;99.90;;;;;;5001621;28;20153;-76
2022/12/02 07:50:27;;;;;;;55.42;23.38;;;3.90;99.90;;;;;;5018380;28;20511;-76
2022/12/02 07:52:52;;;;;;;60.03;23.45;;;3.80;99.90;;;;;;5022341;28;20089;-76
2022/12/02 07:55:18;;;;;;;52.95;22.13;;;3.80;99.90;;;;;;5004890;28;20477;-76
2022/12/02 07:57:44;;;;;;;55.13;21.90;;;3.80;99.90;;;;;;5010584;28;20493;-76
2022/12/02 08:00:10;;;;;;;54.03;22.73;;;3.80;99.90;;;;;;5033387;28;20037;-77
2022/12/02 08:02:36;;;;;;;55.80;22.27;;;3.80;99.90;;;;;;5005954;28;20049;-76
2022/12/02 08:05:01;;;;;;;56.88;22.58;;;3.90;99.90;;;;;;5011422;28;20043;-76
2022/12/02 08:07:30;;;;;;;58.83;24.33;;;3.80;99.90;;;;;;4999892;28;20077;-76
2022/12/02 08:09:56;;;;;;;62.30;23.67;;;3.80;99.90;;;;;;5002018;28;20074;-76
2022/12/02 08:12:21;;;;;;;57.17;22.38;;;3.80;99.90;;;;;;5003438;28;20117;-77
2022/12/02 08:14:47;;;;;;;57.22;22.88;;;3.80;99.90;;;;;;4993069;28;20138;-75
2022/12/02 08:17:13;;;;;;;53.78;23.52;;;3.80;99.90;;;;;;4996062;28;20042;-76
2022/12/02 08:19:40;;;;;;;60.53;22.70;;;3.80;99.90;;;;;;4998718;28;20041;-76
2022/12/02 08:22:06;;;;;;;55.63;22.60;;;3.90;99.90;;;;;;4995228;28;20054;-76
2022/12/02 08:24:33;;;;;;;65.18;23.33;;;3.90;99.90;;;;;;4999551;28;20916;-76
2022/12/02 08:26:58;;;;;;;62.22;23.77;;;3.90;99.90;;;;;;5010177;28;20072;-76
2022/12/02 08:29:24;;;;;;;60.58;24.15;;;3.90;99.90;;;;;;5008037;28;20111;-75
2022/12/02 08:31:50;;;;;;;61.85;23.30;;;3.90;99.90;;;;;;5010246;28;20042;-76
2022/12/02 08:34:15;;;;;;;62.95;24.10;;;3.90;99.90;;;;;;5009912;28;20042;-75
2022/12/02 08:36:41;;;;;;;52.67;21.85;;;3.90;99.90;;;;;;5015407;28;20033;-76
2022/12/02 08:39:07;;;;;;;58.15;23.50;;;4.90;99.90;;;;;;4999629;28;20078;-76
2022/12/02 08:41:37;;;;;;;58.67;22.40;;;3.90;99.90;;;;;;4998622;28;20510;-76
2022/12/02 08:44:03;;;;;;;58.40;23.75;;;3.90;99.90;;;;;;5008712;28;20080;-78
2022/12/02 08:46:29;;;;;;;59.22;23.80;;;3.90;99.90;;;;;;5002407;28;20671;-76
2022/12/02 08:48:55;;;;;;;57.80;24.25;;;3.90;99.90;;;;;;4999269;28;20116;-78
2022/12/02 08:51:21;;;;;;;61.53;24.90;;;3.90;99.90;;;;;;5029258;28;20531;-76
2022/12/02 08:53:47;;;;;;;56.88;22.38;;;3.90;99.90;;;;;;5006842;28;20042;-76
2022/12/02 08:56:13;;;;;;;57.00;23.30;;;3.90;99.90;;;;;;5000407;28;20413;-76
2022/12/02 08:58:39;;;;;;;52.85;21.92;;;3.90;99.90;;;;;;5009731;28;20041;-79
2022/12/02 09:01:05;;;;;;;50.28;22.13;;;3.90;99.90;;;;;;5000120;28;20053;-76
2022/12/02 09:03:32;;;;;;;57.15;23.38;;;3.90;99.90;;;;;;4995761;28;20060;-77
2022/12/02 09:05:57;;;;;;;59.72;22.90;;;3.90;99.90;;;;;;5018182;28;20033;-76
2022/12/02 09:08:23;;;;;;;58.08;22.50;;;3.90;99.90;;;;;;5007967;28;20033;-78
2022/12/02 09:10:49;;;;;;;57.30;21.98;;;3.90;99.90;;;;;;5012712;28;20036;-76
2022/12/02 09:13:14;;;;;;;59.55;22.55;;;3.90;99.90;;;;;;5000749;28;20062;-76
2022/12/02 09:15:40;;;;;;;56.33;21.40;;;3.90;99.90;;;;;;5007694;28;20038;-76
2022/12/02 09:18:06;;;;;;;50.33;21.13;;;3.90;99.90;;;;;;4996676;28;20037;-78
2022/12/02 09:20:31;;;;;;;58.40;21.77;;;3.90;99.90;;;;;;4997173;28;20435;-76
2022/12/02 09:22:57;;;;;;;59.97;21.77;;;3.90;99.90;;;;;;4998415;28;20095;-76
2022/12/02 09:25:23;;;;;;;54.42;21.30;;;4.00;99.90;;;;;;4999786;28;20026;-79
2022/12/02 09:27:48;;;;;;;52.97;20.77;;;4.00;99.90;;;;;;4992313;28;20400;-76
2022/12/02 09:30:14;;;;;;;47.92;20.10;;;4.00;99.90;;;;;;5009003;28;20037;-76
2022/12/02 09:32:40;;;;;;;52.25;20.80;;;4.00;99.90;;;;;;5002675;28;20473;-78
2022/12/02 09:35:06;;;;;;;55.03;20.55;;;4.00;99.90;;;;;;4993210;28;20376;-77
2022/12/02 09:37:32;;;;;;;49.90;20.17;;;4.10;99.90;;;;;;5014119;28;20057;-76
2022/12/02 09:39:57;;;;;;;55.53;20.23;;;4.30;99.90;;;;;;5004527;28;20035;-76
2022/12/02 09:42:23;;;;;;;49.22;20.50;;;4.10;99.90;;;;;;5023091;28;20049;-77
2022/12/02 09:44:49;;;;;;;54.30;20.60;;;4.10;99.90;;;;;;5006363;28;20050;-76
2022/12/02 09:47:16;;;;;;;53.67;21.40;;;4.10;99.90;;;;;;5012719;28;20046;-77
2022/12/02 09:49:43;;;;;;;59.60;21.77;;;4.10;99.90;;;;;;5005755;28;20038;-76
2022/12/02 09:52:24;;;;;;;58.33;22.42;;;4.10;99.90;;;;;;5017300;28;20039;-76
2022/12/02 09:54:56;;;;;;;57.50;22.20;;;4.20;99.90;;;;;;5008861;28;20042;-75
2022/12/02 09:57:27;;;;;;;63.25;22.45;;;4.20;99.90;;;;;;4996299;28;20042;-77
2022/12/02 09:59:53;;;;;;;56.85;23.42;;;4.20;99.90;;;;;;5008997;28;20506;-78
2022/12/02 10:02:29;;;;;;;56.95;23.80;;;4.20;99.90;;;;;;5012922;28;20046;-76
2022/12/02 10:05:06;;;;;;;52.15;21.75;;;4.30;99.90;;;;;;5011616;28;20039;-76
2022/12/02 10:07:32;;;;;;;56.78;22.02;;;4.20;99.90;;;;;;5014638;28;20509;-76
2022/12/02 10:09:58;;;;;;;56.83;21.23;;;4.20;99.90;;;;;;5005551;28;20179;-77
2022/12/02 10:12:24;;;;;;;54.47;22.25;;;4.20;99.90;;;;;;5016735;28;20048;-76
2022/12/02 10:14:50;;;;;;;59.70;21.90;;;4.20;99.90;;;;;;4999107;28;20043;-76
2022/12/02 10:17:18;;;;;;;67.00;22.15;;;4.20;99.90;;;;;;5017588;28;20478;-76
2022/12/02 10:19:45;;;;;;;57.13;21.98;;;4.20;99.90;;;;;;5004175;28;20369;-76
2022/12/02 10:22:16;;;;;;;54.38;22.17;;;4.30;99.90;;;;;;5020840;28;20038;-75
2022/12/02 10:24:43;;;;;;;58.97;22.23;;;4.20;99.90;;;;;;5019562;28;20559;-75
2022/12/02 10:27:23;;;;;;;59.28;21.55;;;4.30;99.90;;;;;;5003596;28;20136;-78
2022/12/02 10:29:50;;;;;;;58.63;21.50;;;4.30;99.90;;;;;;5000353;28;20511;-78
2022/12/02 10:32:26;;;;;;;54.20;22.00;;;4.20;99.90;;;;;;4979304;28;20584;-79
2022/12/02 10:35:10;;;;;;;60.92;21.45;;;4.20;99.90;;;;;;4995954;28;20511;-77
2022/12/02 10:37:36;;;;;;;60.33;21.88;;;4.20;99.90;;;;;;4999229;28;20550;-76
2022/12/02 10:40:12;;;;;;;52.15;19.77;;;4.20;99.90;;;;;;5002220;28;20038;-78
2022/12/02 10:42:38;;;;;;;51.50;20.38;;;4.20;99.90;;;;;;5000654;28;20038;-76
2022/12/02 10:45:14;;;;;;;54.53;19.20;;;4.20;99.90;;;;;;4998507;28;20050;-78
2022/12/02 10:47:40;;;;;;;49.17;17.95;;;4.20;99.90;;;;;;5001237;28;20046;-76
2022/12/02 10:50:22;;;;;;;44.85;17.85;;;4.20;99.90;;;;;;4997535;28;20153;-76
2022/12/02 10:52:57;;;;;;;45.13;17.17;;;4.20;99.90;;;;;;4999535;28;20088;-76
2022/12/02 10:55:25;;;;;;;40.60;16.73;;;4.20;99.90;;;;;;5005553;28;20062;-76
2022/12/02 10:57:51;;;;;;;38.97;15.45;;;4.20;99.90;;;;;;5002023;28;20042;-76
2022/12/02 11:00:19;;;;;;;51.08;17.70;;;4.20;99.90;;;;;;4998819;28;20046;-76
2022/12/02 11:02:49;;;;;;;39.47;15.35;;;4.20;99.90;;;;;;4995946;28;20108;-76
2022/12/02 11:05:26;;;;;;;39.78;15.90;;;4.20;99.90;;;;;;5003443;28;20425;-80
2022/12/02 11:08:19;;;;;;;43.95;17.83;;;4.20;99.90;;;;;;5002780;28;20046;-77
2022/12/02 11:10:48;;;;;;;38.67;15.15;;;4.20;99.90;;;;;;4999808;28;20053;-76
2022/12/02 11:13:16;;;;;;;36.47;14.65;;;4.20;99.90;;;;;;4995964;28;20038;-74
2022/12/02 11:15:50;;;;;;;39.42;15.63;;;4.20;99.90;;;;;;4981218;28;20049;-76
2022/12/02 11:18:22;;;;;;;42.05;16.10;;;4.20;99.90;;;;;;5000267;28;20042;-75
2022/12/02 11:20:52;;;;;;;43.97;16.73;;;4.20;99.90;;;;;;5012896;28;20041;-76
2022/12/02 11:23:23;;;;;;;44.20;16.65;;;4.20;99.90;;;;;;5005366;28;20091;-76
2022/12/02 11:25:59;;;;;;;40.20;16.83;;;4.20;99.90;;;;;;5007271;28;20132;-77
2022/12/02 11:28:28;;;;;;;48.13;20.77;;;4.20;99.90;;;;;;5018417;28;20045;-78
2022/12/02 11:31:08;;;;;;;43.47;19.63;;;4.20;99.90;;;;;;5013175;28;20042;-76
2022/12/02 11:33:54;;;;;;;48.72;19.90;;;4.20;99.90;;;;;;5011115;28;20505;-77
2022/12/02 11:36:21;;;;;;;38.95;17.83;;;4.20;99.90;;;;;;4996541;28;20053;-76
2022/12/02 11:38:49;;;;;;;45.55;20.77;;;4.20;99.90;;;;;;4992010;28;20061;-75
2022/12/02 11:41:16;;;;;;;48.88;18.80;;;4.10;99.90;;;;;;4999545;28;20053;-75
2022/12/02 11:43:45;;;;;;;42.72;18.73;;;4.20;99.90;;;;;;5008056;28;20557;-76
2022/12/02 11:46:14;;;;;;;48.10;19.90;;;4.10;99.90;;;;;;5006551;28;20046;-76
2022/12/02 11:48:54;;;;;;;52.58;19.38;;;4.10;99.90;;;;;;5005016;28;20116;-77
2022/12/02 11:51:36;;;;;;;46.17;20.23;;;4.50;99.90;;;;;;4989788;28;20045;-76
2022/12/02 11:54:02;;;;;;;;;;;4.10;99.90;;;;;;5010838;28;20041;-78
2022/12/02 11:56:36;;;;;;;47.58;20.80;;;4.10;99.90;;;;;;5005209;28;19917;-77
2022/12/02 11:59:01;;;;;;;47.03;20.08;;;4.10;99.90;;;;;;4987701;28;20081;-76
2022/12/02 12:01:27;;;;;;;46.20;20.65;;;4.10;99.90;;;;;;5009232;28;20046;-76
2022/12/02 12:03:53;;;;;;;48.38;19.90;;;4.10;99.90;;;;;;5010455;28;20073;-76
2022/12/02 12:06:28;;;;;;;49.40;21.15;;;4.10;99.90;;;;;;5004344;28;20041;-76
2022/12/02 12:08:55;;;;;;;55.88;21.77;;;4.10;99.90;;;;;;5011785;28;20038;-76
2022/12/02 12:11:25;;;;;;;54.05;22.55;;;4.00;99.90;;;;;;4998799;28;20430;-76
2022/12/02 12:14:10;;;;;;;52.13;23.00;;;4.00;99.90;;;;;;4995805;28;20041;-76
2022/12/02 12:16:38;;;;;;;57.42;24.08;;;4.00;99.90;;;;;;5008073;28;20053;-75
2022/12/02 12:19:13;;;;;;;63.33;25.08;;;4.10;99.90;;;;;;5003362;28;20054;-76
2022/12/02 12:21:43;;;;;;;57.00;24.70;;;4.00;99.90;;;;;;5001664;28;20085;-76
2022/12/02 12:24:22;;;;;;;58.25;24.10;;;4.00;99.90;;;;;;5011916;28;20128;-77
2022/12/02 12:27:02;;;;;;;58.97;24.90;;;4.00;99.90;;;;;;5002506;28;20529;-77
2022/12/02 12:29:37;;;;;;;60.97;24.77;;;4.00;99.90;;;;;;5004164;28;20057;-77
2022/12/02 12:32:04;;;;;;;59.70;25.60;;;4.00;99.90;;;;;;4989940;28;20076;-78
2022/12/02 12:34:30;;;;;;;62.33;26.58;;;4.00;99.90;;;;;;5003437;28;20041;-77
2022/12/02 12:36:57;;;;;;;59.00;25.75;;;4.00;99.90;;;;;;5005535;28;20030;-76
2022/12/02 12:39:23;;;;;;;60.17;25.83;;;4.00;99.90;;;;;;5003433;28;20048;-77
2022/12/02 12:41:48;;;;;;;66.35;27.38;;;4.00;99.90;;;;;;5011980;28;20121;-78
2022/12/02 12:44:14;;;;;;;61.13;27.45;;;4.00;99.90;;;;;;5004150;28;20112;-76
2022/12/02 12:46:40;;;;;;;61.15;26.02;;;4.00;99.90;;;;;;5001026;28;20046;-77
2022/12/02 12:49:06;;;;;;;61.75;26.33;;;4.00;99.90;;;;;;5002617;28;20085;-76
2022/12/02 12:51:32;;;;;;;64.43;25.77;;;4.00;99.90;;;;;;5010672;28;20041;-78